createdAt,value
2023-02-28T07:43:38.246Z,70.50
2023-02-28T07:46:13.874Z,69.67
2023-02-28T07:48:46.626Z,68.81
2023-02-28T07:51:19.129Z,68.02
2023-02-28T07:53:48.736Z,67.55
2023-02-28T07:56:17.014Z,66.74
2023-02-28T07:58:45.056Z,66.61
2023-02-28T08:01:12.555Z,65.51
2023-02-28T08:03:39.598Z,64.91
2023-02-28T08:06:07.606Z,64.65
2023-02-28T08:08:36.859Z,63.96
2023-02-28T08:11:06.050Z,63.59
2023-02-28T08:13:33.295Z,63.51
2023-02-28T08:16:03.518Z,62.71
2023-02-28T08:18:31.325Z,62.51
2023-02-28T08:20:58.156Z,61.93
2023-02-28T08:23:25.349Z,61.50
2023-02-28T08:29:01.083Z,61.36
2023-02-28T08:31:29.085Z,60.85
2023-02-28T08:33:59.845Z,60.48
2023-02-28T08:39:20.131Z,59.33
2023-02-28T08:41:49.429Z,58.62
2023-02-28T08:44:20.405Z,58.86
2023-02-28T08:46:48.909Z,58.11
2023-02-28T08:49:16.607Z,58.77
2023-02-28T08:51:43.982Z,58.74
2023-02-28T08:54:19.752Z,58.65
2023-02-28T08:56:47.794Z,58.83
2023-02-28T08:59:15.137Z,58.19
2023-02-28T09:01:42.306Z,58.31
2023-02-28T09:04:11.163Z,58.53
2023-02-28T09:06:38.071Z,57.91
2023-02-28T09:09:08.051Z,57.76
2023-02-28T09:11:36.451Z,57.85
2023-02-28T09:14:03.787Z,57.51
2023-02-28T09:16:35.909Z,56.92
2023-02-28T09:19:03.097Z,56.68
2023-02-28T09:21:30.788Z,56.46
2023-02-28T09:23:58.780Z,55.86
2023-02-28T09:26:32.330Z,55.71
2023-02-28T09:29:08.809Z,55.74
2023-02-28T09:31:35.972Z,56.20
2023-02-28T09:34:04.215Z,56.33
2023-02-28T09:36:41.798Z,55.34
2023-02-28T09:39:13.030Z,54.89
2023-02-28T09:41:49.005Z,53.86
2023-02-28T09:44:40.043Z,53.31
2023-02-28T09:47:14.121Z,52.81
2023-02-28T09:49:46.695Z,52.54
2023-02-28T09:52:19.702Z,52.89
2023-02-28T09:54:46.675Z,52.39
2023-02-28T09:57:25.968Z,51.69
2023-02-28T10:00:18.227Z,51.25
2023-02-28T10:03:35.875Z,51.18
2023-02-28T10:06:20.626Z,50.96
2023-02-28T10:09:17.604Z,50.26
2023-02-28T10:14:22.487Z,48.37
2023-02-28T10:17:11.132Z,48.13
2023-02-28T10:19:52.634Z,47.51
2023-02-28T10:22:39.866Z,47.74
2023-02-28T10:25:21.484Z,48.09
2023-02-28T10:27:50.078Z,48.48
2023-02-28T10:30:20.214Z,48.45
2023-02-28T10:32:50.686Z,47.88
2023-02-28T10:35:27.216Z,47.32
2023-02-28T10:38:05.514Z,46.21
2023-02-28T10:40:37.281Z,46.04
2023-02-28T10:43:20.377Z,46.14
2023-02-28T10:46:13.025Z,45.66
2023-02-28T10:48:50.375Z,46.28
2023-02-28T10:51:19.119Z,45.91
2023-02-28T10:54:02.484Z,45.72
2023-02-28T10:56:31.533Z,44.50
2023-02-28T10:59:08.452Z,44.44
2023-02-28T11:01:57.467Z,45.07
2023-02-28T11:04:32.789Z,44.63
2023-02-28T11:07:24.432Z,44.00
2023-02-28T11:09:55.229Z,44.15
2023-02-28T11:12:52.313Z,43.50
2023-02-28T11:15:51.392Z,43.46
2023-02-28T11:18:23.438Z,42.77
2023-02-28T11:20:54.372Z,42.53
2023-02-28T11:23:21.705Z,41.84
2023-02-28T11:25:51.007Z,41.35
2023-02-28T11:29:03.089Z,41.80
2023-02-28T11:31:31.455Z,42.43
2023-02-28T11:33:59.260Z,42.52
2023-02-28T11:36:29.453Z,42.23
2023-02-28T11:39:03.918Z,42.01
2023-02-28T11:42:13.657Z,42.41
2023-02-28T11:45:08.308Z,42.84
2023-02-28T11:48:24.192Z,42.62
2023-02-28T11:51:10.378Z,42.06
2023-02-28T11:56:50.816Z,40.87
2023-02-28T11:59:57.881Z,40.73
2023-02-28T12:03:00.091Z,40.94
2023-02-28T12:05:50.422Z,41.28
2023-02-28T12:08:28.908Z,40.51
2023-02-28T12:11:32.394Z,40.48
2023-02-28T12:14:39.134Z,40.77
2023-02-28T12:18:05.279Z,41.21
2023-02-28T12:21:02.328Z,41.07
2023-02-28T12:23:58.596Z,41.62
2023-02-28T12:29:32.003Z,40.68
2023-02-28T12:32:10.986Z,39.69
2023-02-28T12:34:40.187Z,39.58
2023-02-28T12:37:25.597Z,39.49
2023-02-28T12:39:59.366Z,40.29
2023-02-28T12:42:30.390Z,40.37
2023-02-28T12:45:28.212Z,40.04
2023-02-28T12:48:01.735Z,40.33
2023-02-28T12:50:32.761Z,41.09
2023-02-28T12:53:07.162Z,42.19
2023-02-28T12:56:05.902Z,43.32
2023-02-28T12:58:44.700Z,44.60
2023-02-28T13:01:48.294Z,45.29
2023-02-28T13:04:48.144Z,45.73
2023-02-28T13:07:31.568Z,46.32
2023-02-28T13:10:00.124Z,46.38
2023-02-28T13:12:27.230Z,46.50
2023-02-28T13:15:21.821Z,47.08
2023-02-28T13:17:49.784Z,46.88
2023-02-28T13:20:21.336Z,46.34
2023-02-28T13:25:40.098Z,45.78
2023-02-28T13:28:11.320Z,45.68
2023-02-28T13:30:56.171Z,45.14
2023-02-28T13:33:35.103Z,44.29
2023-02-28T13:36:09.071Z,43.17
2023-02-28T13:38:39.152Z,42.48
2023-02-28T13:41:37.032Z,41.15
2023-02-28T13:44:07.074Z,40.87
2023-02-28T13:46:49.599Z,41.28
2023-02-28T13:49:26.841Z,41.04
2023-02-28T13:52:07.207Z,40.81
2023-02-28T13:55:05.544Z,40.51
2023-02-28T13:57:41.698Z,40.28
2023-02-28T14:00:27.621Z,40.20
2023-02-28T14:03:13.719Z,40.17
2023-02-28T14:05:44.420Z,39.40
2023-02-28T14:08:21.335Z,39.54
2023-02-28T14:10:54.994Z,39.52
2023-02-28T14:13:48.544Z,39.39
2023-02-28T14:16:27.017Z,39.02
2023-02-28T14:19:10.980Z,38.80
2023-02-28T14:22:03.020Z,38.61
2023-02-28T14:25:22.868Z,38.18
2023-02-28T14:28:24.935Z,38.06
2023-02-28T14:31:03.961Z,38.10
2023-02-28T14:33:58.656Z,37.91
2023-02-28T14:36:32.696Z,37.63
2023-02-28T14:39:08.857Z,37.46
2023-02-28T14:41:41.782Z,37.29
2023-02-28T14:44:22.518Z,37.33
2023-02-28T14:46:52.754Z,37.63
2023-02-28T14:49:32.222Z,37.69
2023-02-28T14:52:28.483Z,38.24
2023-02-28T14:55:01.748Z,39.44
2023-02-28T14:57:33.956Z,40.40
2023-02-28T15:00:32.119Z,41.22
2023-02-28T15:03:24.715Z,42.70
2023-02-28T15:05:53.242Z,43.21
2023-02-28T15:08:20.504Z,44.16
2023-02-28T15:10:55.227Z,44.96
2023-02-28T15:13:39.424Z,45.91
2023-02-28T15:16:27.000Z,46.36
2023-02-28T15:18:59.130Z,47.19
2023-02-28T15:21:39.961Z,47.59
2023-02-28T15:24:32.217Z,48.42
2023-02-28T15:27:01.028Z,49.19
2023-02-28T15:29:29.152Z,49.95
2023-02-28T15:32:03.917Z,50.59
2023-02-28T15:34:52.455Z,51.22
2023-02-28T15:37:45.806Z,51.64
2023-02-28T15:40:38.688Z,52.27
2023-02-28T15:43:19.694Z,53.06
2023-02-28T15:45:46.998Z,53.54
2023-02-28T15:48:41.622Z,54.01
2023-02-28T15:51:09.574Z,54.51
2023-02-28T15:53:40.323Z,55.45
2023-02-28T15:56:13.346Z,55.88
2023-02-28T15:58:41.949Z,56.34
2023-02-28T16:04:17.586Z,57.64
2023-02-28T16:07:00.734Z,58.04
2023-02-28T16:09:34.288Z,58.60
2023-02-28T16:12:03.563Z,59.14
2023-02-28T16:14:31.203Z,59.36
2023-02-28T16:17:04.303Z,60.11
2023-02-28T16:19:33.196Z,60.02
2023-02-28T16:22:01.486Z,60.53
2023-02-28T16:24:28.572Z,60.24
2023-02-28T16:27:30.933Z,60.78
2023-02-28T16:29:58.077Z,60.86
2023-02-28T16:32:24.918Z,61.22
2023-02-28T16:34:53.088Z,61.39
2023-02-28T16:37:20.395Z,61.94
2023-02-28T16:39:48.199Z,62.54
2023-02-28T16:42:26.768Z,62.70
2023-02-28T16:44:55.825Z,63.42
2023-02-28T16:47:23.303Z,63.77
2023-02-28T16:55:21.913Z,65.18
2023-02-28T16:57:52.422Z,65.61
2023-02-28T17:00:19.523Z,65.97
2023-02-28T17:02:46.772Z,66.24
2023-02-28T17:05:37.961Z,66.73
2023-02-28T17:10:51.668Z,67.49
2023-02-28T17:13:24.070Z,67.90
2023-02-28T17:15:51.039Z,68.15
2023-02-28T17:18:21.819Z,68.47
2023-02-28T17:20:53.279Z,68.90
2023-02-28T17:23:20.319Z,69.53
2023-02-28T17:25:56.319Z,70.18
2023-02-28T17:28:25.361Z,70.51
2023-02-28T17:30:52.640Z,70.63
2023-02-28T17:33:19.963Z,71.01
2023-02-28T17:35:46.761Z,70.97
2023-02-28T17:38:18.166Z,71.48
2023-02-28T17:40:45.040Z,71.91
2023-02-28T17:44:45.384Z,72.03
2023-02-28T18:18:50.480Z,73.92
2023-02-28T18:22:08.309Z,74.08
2023-02-28T19:05:41.642Z,76.76
2023-02-28T19:09:28.289Z,76.62
2023-02-28T20:10:38.533Z,76.50
2023-02-28T20:13:31.104Z,76.63
2023-02-28T21:10:03.864Z,77.65
2023-02-28T21:13:21.557Z,77.47
2023-02-28T21:20:31.980Z,76.83
2023-02-28T21:23:48.632Z,76.77
2023-02-28T22:57:11.793Z,78.31
2023-02-28T23:00:54.658Z,78.20
